Time;durP1;ratioP1;P1;durP2;ratioP2;P2;SDS_P1;SDS_P2;PMS_P1;PMS_P2;Temp;Humidity;BMP_temperature;BMP_pressure;BME280_temperature;BME280_humidity;BME280_pressure;Samples;Min_cycle;Max_cycle;Signal;HPM_P1;HPM_P2
2022/06/30 00:01:36;;;;;;;4.68;3.40;;;20.50;99.90;;;20.99;82.65;100541.44;5150730;28;20046;-79
2022/06/30 00:04:09;;;;;;;4.38;3.17;;;20.50;99.90;;;20.98;82.92;100534.41;5150875;28;20050;-82
2022/06/30 00:06:41;;;;;;;4.68;3.25;;;20.50;99.90;;;20.97;83.20;100538.81;5153183;28;20077;-79
2022/06/30 00:09:13;;;;;;;5.18;3.58;;;20.40;99.90;;;20.96;83.17;100538.84;5173706;28;20052;-81
2022/06/30 00:11:47;;;;;;;5.05;3.28;;;20.50;99.90;;;20.95;83.36;100529.16;5155765;28;20122;-82
2022/06/30 00:14:19;;;;;;;4.90;3.00;;;20.40;99.90;;;20.93;83.54;100536.22;5156096;28;20058;-80
2022/06/30 00:16:51;;;;;;;4.22;2.75;;;20.40;99.90;;;20.93;83.35;100533.56;5155300;28;20057;-80
2022/06/30 00:19:23;;;;;;;4.85;3.08;;;20.40;99.90;;;20.93;83.25;100528.28;5162451;28;20051;-80
2022/06/30 00:21:55;;;;;;;4.78;3.40;;;20.40;99.90;;;20.93;83.02;100529.19;5147454;28;20054;-82
2022/06/30 00:24:27;;;;;;;5.22;2.88;;;20.40;99.90;;;20.94;83.14;100530.06;5165178;28;20074;-80
2022/06/30 00:27:01;;;;;;;4.88;3.38;;;20.40;99.90;;;20.92;83.01;100526.53;5155211;28;20058;-81
2022/06/30 00:29:33;;;;;;;5.80;3.70;;;20.40;99.90;;;20.88;83.35;100523.06;5154887;28;20053;-81
2022/06/30 00:32:06;;;;;;;5.97;4.47;;;20.40;99.90;;;20.81;83.25;100524.91;5171960;28;20450;-81
2022/06/30 00:34:38;;;;;;;5.47;4.13;;;20.30;99.90;;;20.75;83.45;100524.97;5154377;28;20052;-81
2022/06/30 00:37:11;;;;;;;6.30;4.20;;;20.30;99.90;;;20.72;83.37;100532.94;5150391;28;20061;-80
2022/06/30 00:39:43;;;;;;;5.65;3.85;;;20.30;99.90;;;20.72;83.50;100524.97;5163797;28;20401;-81
2022/06/30 00:42:16;;;;;;;7.43;3.95;;;20.20;99.90;;;20.72;83.57;100524.97;5154967;28;20050;-80
2022/06/30 00:44:49;;;;;;;4.75;3.28;;;20.20;99.90;;;20.70;83.85;100518.84;5154186;28;20421;-79
2022/06/30 00:47:21;;;;;;;4.97;3.58;;;20.20;99.90;;;20.69;84.08;100510.91;5172524;28;20085;-79
2022/06/30 00:49:53;;;;;;;6.53;3.85;;;20.20;99.90;;;20.64;84.50;100508.31;5171919;28;20042;-79
2022/06/30 00:52:26;;;;;;;4.97;3.53;;;20.10;99.90;;;20.63;84.73;100508.34;5154773;28;20058;-80
2022/06/30 00:54:59;;;;;;;5.13;3.53;;;20.10;99.90;;;20.62;84.82;100510.09;5154013;28;20065;-79
2022/06/30 00:57:34;;;;;;;4.97;3.35;;;20.10;99.90;;;20.62;84.82;100499.50;5171739;28;20046;-80
2022/06/30 01:00:08;;;;;;;4.88;3.72;;;20.10;99.90;;;20.63;84.73;100495.09;5171444;28;20042;-80
2022/06/30 01:02:41;;;;;;;;;;;20.20;99.90;;;20.62;85.00;100485.41;5171389;28;20044;-80
2022/06/30 01:05:14;;;;;;;5.25;3.25;;;20.10;99.90;;;20.61;84.92;100483.66;5171639;28;20308;-81
2022/06/30 01:07:47;;;;;;;5.72;3.72;;;20.10;99.90;;;20.57;85.16;100496.03;5169255;28;20046;-81
2022/06/30 01:13:10;;;;;;;6.00;3.95;;;20.10;99.90;;;20.49;85.33;100482.88;5153609;28;20428;-78
2022/06/30 01:15:42;;;;;;;4.80;3.55;;;20.00;99.90;;;20.46;85.47;100482.91;5153623;28;20054;-80
2022/06/30 01:18:14;;;;;;;5.45;3.60;;;20.00;99.90;;;20.44;85.55;100486.44;5162948;28;20054;-80
2022/06/30 01:20:47;;;;;;;4.85;3.13;;;20.00;99.90;;;20.42;85.87;100491.75;5162456;28;20409;-79
2022/06/30 01:23:20;;;;;;;4.75;3.28;;;19.90;99.90;;;20.42;85.98;100490.88;5153395;28;20050;-80
2022/06/30 01:25:53;;;;;;;5.72;3.55;;;19.90;99.90;;;20.40;86.31;100501.44;5171918;28;20444;-82
2022/06/30 01:28:25;;;;;;;5.40;3.22;;;19.90;99.90;;;20.38;86.44;100497.06;5153853;28;20397;-81
2022/06/30 01:30:58;;;;;;;5.82;3.42;;;19.90;99.90;;;20.36;86.66;100493.56;5170937;28;20046;-81
2022/06/30 01:33:30;;;;;;;4.43;3.17;;;19.80;99.90;;;20.29;86.52;100498.06;5154574;28;20058;-80
2022/06/30 01:36:02;;;;;;;4.50;3.05;;;19.80;99.90;;;20.22;86.77;100499.88;5153513;28;20424;-80
2022/06/30 01:38:36;;;;;;;5.10;3.22;;;19.80;99.90;;;20.20;87.20;100496.34;5153804;28;20050;-79
2022/06/30 01:41:08;;;;;;;5.20;3.30;;;19.70;99.90;;;20.15;87.33;100492.00;5153375;28;20161;-79
2022/06/30 01:43:40;;;;;;;4.57;3.22;;;19.70;99.90;;;20.10;87.34;100500.00;5170639;28;20046;-80
2022/06/30 01:46:12;;;;;;;5.20;3.10;;;19.60;99.90;;;20.06;87.33;100498.25;5170785;28;20404;-81
2022/06/30 01:48:44;;;;;;;4.20;3.10;;;19.60;99.90;;;20.01;87.64;100500.06;5153540;28;20085;-81
2022/06/30 01:51:16;;;;;;;4.63;3.28;;;19.50;99.90;;;19.98;87.91;100497.44;5153861;28;20055;-81
2022/06/30 01:53:50;;;;;;;5.50;3.20;;;19.50;99.90;;;19.95;87.95;100490.44;5153457;28;20051;-79
2022/06/30 01:56:22;;;;;;;6.35;3.58;;;19.50;99.90;;;19.92;88.29;100495.72;5153308;28;20049;-81
2022/06/30 01:58:54;;;;;;;5.68;3.42;;;19.40;99.90;;;19.88;88.40;100495.75;5153404;28;20417;-80
2022/06/30 02:01:26;;;;;;;5.05;3.67;;;19.40;99.90;;;19.84;88.79;100500.22;5170461;28;20042;-80
2022/06/30 02:04:46;;;;;;;5.18;3.60;;;19.40;99.90;;;19.81;88.75;100496.69;5169921;28;20050;-81
2022/06/30 02:06:51;;;;;;;4.70;3.30;;;19.40;99.90;;;19.75;88.82;100511.72;5152474;28;20050;-77
2022/06/30 02:09:25;;;;;;;5.82;3.63;;;19.30;99.90;;;19.70;89.14;100500.31;5170065;28;20045;-81
2022/06/30 02:14:43;;;;;;;6.68;4.32;;;19.20;99.90;;;19.61;89.53;100492.44;5168766;28;20085;-77
2022/06/30 02:17:15;;;;;;;6.68;3.85;;;19.20;99.90;;;19.62;89.47;100490.66;5152600;28;20051;-81
2022/06/30 02:19:47;;;;;;;6.50;4.05;;;19.10;99.90;;;19.62;89.55;100502.09;5153184;28;20050;-80
2022/06/30 02:22:19;;;;;;;6.30;4.22;;;19.10;99.90;;;19.63;89.69;100503.00;5153219;28;20390;-80
2022/06/30 02:24:52;;;;;;;5.93;3.72;;;19.20;99.90;;;19.63;89.86;100503.91;5171209;28;20069;-81
2022/06/30 02:27:24;;;;;;;5.82;3.95;;;19.20;99.90;;;19.64;89.72;100513.56;5153401;28;20054;-81
2022/06/30 02:29:57;;;;;;;5.80;3.70;;;19.20;99.90;;;19.62;89.79;100512.69;5153082;28;20052;-81
2022/06/30 02:32:29;;;;;;;5.88;3.85;;;19.10;99.90;;;19.59;90.03;100518.00;5168950;28;20046;-81
2022/06/30 02:35:01;;;;;;;6.13;3.80;;;19.20;99.90;;;19.58;90.17;100531.25;5152508;28;20523;-80
2022/06/30 02:37:33;;;;;;;6.90;4.05;;;19.10;99.90;;;19.55;90.52;100521.50;5152885;28;20054;-80
2022/06/30 02:40:09;;;;;;;6.03;3.83;;;19.10;99.90;;;19.52;90.44;100526.84;5169662;28;20046;-80
2022/06/30 02:42:41;;;;;;;6.65;4.30;;;19.10;99.90;;;19.51;90.80;100536.53;5152620;28;20047;-79
2022/06/30 02:45:13;;;;;;;6.88;4.53;;;19.10;99.90;;;19.50;91.31;100524.22;5151766;28;20051;-80
2022/06/30 02:47:46;;;;;;;8.95;5.63;;;19.10;99.90;;;19.48;91.48;100519.78;5152549;28;20050;-82
2022/06/30 02:50:18;;;;;;;9.18;5.65;;;19.00;99.90;;;19.47;91.32;100515.41;5169584;28;20567;-80
2022/06/30 02:52:50;;;;;;;7.97;4.93;;;19.10;99.90;;;19.45;91.46;100510.13;5151590;28;20050;-80
2022/06/30 02:55:23;;;;;;;10.18;5.95;;;19.10;99.90;;;19.46;91.13;100516.28;5169592;28;20058;-81
2022/06/30 02:57:55;;;;;;;8.55;5.22;;;19.00;99.90;;;19.47;91.21;100518.03;5169436;28;20046;-81
2022/06/30 03:00:27;;;;;;;8.35;5.30;;;19.00;99.90;;;19.45;91.33;100511.91;5166634;28;20046;-80
2022/06/30 03:02:59;;;;;;;7.93;5.15;;;19.00;99.90;;;19.45;91.77;100525.13;5132432;28;20051;-80
2022/06/30 03:05:32;;;;;;;8.32;4.93;;;19.00;99.90;;;19.47;92.15;100523.34;5131152;28;20054;-80
2022/06/30 03:08:05;;;;;;;6.57;4.57;;;19.10;99.90;;;19.49;92.20;100516.25;5132435;28;20057;-80
2022/06/30 03:10:38;;;;;;;6.97;4.40;;;19.10;99.90;;;19.48;92.24;100512.75;5131960;28;20047;-82
2022/06/30 03:13:10;;;;;;;6.43;4.07;;;19.10;99.90;;;19.48;92.50;100514.50;5132669;28;20421;-82
2022/06/30 03:15:43;;;;;;;7.35;4.50;;;19.00;99.90;;;19.48;92.65;100509.22;5131496;28;20054;-82
2022/06/30 03:18:15;;;;;;;6.97;4.35;;;19.10;99.90;;;19.47;92.77;100516.28;5149717;28;20050;-80
2022/06/30 03:20:47;;;;;;;7.97;4.95;;;19.10;99.90;;;19.47;92.94;100520.69;5131779;28;20126;-82
2022/06/30 03:23:19;;;;;;;8.48;5.50;;;19.00;99.90;;;19.44;93.13;100515.44;5132180;28;20043;-80
2022/06/30 03:25:53;;;;;;;8.55;5.43;;;19.00;99.90;;;19.40;93.22;100516.31;5149242;28;20045;-81
2022/06/30 03:28:25;;;;;;;8.70;5.22;;;19.00;99.90;;;19.39;93.31;100514.56;5149298;28;20049;-80
2022/06/30 03:30:57;;;;;;;7.38;5.30;;;19.00;99.90;;;19.40;93.52;100521.63;5131428;28;20050;-81
2022/06/30 03:33:29;;;;;;;7.78;4.60;;;19.00;99.90;;;19.41;93.35;100518.09;5132327;28;20046;-82
2022/06/30 03:36:01;;;;;;;7.22;4.70;;;19.00;99.90;;;19.40;93.08;100516.31;5149630;28;20057;-81
2022/06/30 03:38:33;;;;;;;8.07;5.20;;;19.00;99.90;;;19.41;93.09;100518.97;5132080;28;20051;-80
2022/06/30 03:41:07;;;;;;;7.90;4.80;;;19.00;99.90;;;19.40;92.87;100513.69;5131481;28;20057;-80
2022/06/30 03:43:39;;;;;;;9.35;6.00;;;19.00;99.90;;;19.35;92.82;100508.41;5131784;28;20051;-81
2022/06/30 03:46:11;;;;;;;8.50;5.68;;;19.00;99.90;;;19.32;92.82;100511.09;5131361;28;20054;-81
2022/06/30 03:48:43;;;;;;;8.32;5.63;;;18.90;99.90;;;19.33;92.61;100515.47;5131846;28;20050;-81
2022/06/30 03:51:15;;;;;;;8.15;5.38;;;19.00;99.90;;;19.33;92.64;100510.19;5148831;28;20509;-81
2022/06/30 03:53:47;;;;;;;7.35;5.20;;;19.00;99.90;;;19.36;92.40;100509.28;5131730;28;20055;-81
2022/06/30 03:56:21;;;;;;;7.93;5.20;;;19.00;99.90;;;19.36;92.53;100504.00;5149298;28;20035;-78
2022/06/30 03:58:53;;;;;;;8.88;5.63;;;18.90;99.90;;;19.33;92.90;100504.91;5131970;28;20066;-81
2022/06/30 04:01:25;;;;;;;9.05;5.65;;;18.90;99.90;;;19.31;93.20;100505.81;5148816;28;20043;-81
2022/06/30 04:03:57;;;;;;;8.40;5.68;;;18.90;99.90;;;19.34;93.24;100495.22;5133052;28;20509;-82
2022/06/30 04:06:29;;;;;;;10.05;6.57;;;19.00;99.90;;;19.37;93.33;100505.78;5133233;28;20047;-81
2022/06/30 04:09:01;;;;;;;9.38;5.22;;;19.00;99.90;;;19.39;93.50;100491.66;5148936;28;20038;-80
2022/06/30 04:11:35;;;;;;;7.13;4.90;;;19.00;99.90;;;19.45;93.33;100499.56;5131126;28;20047;-82
2022/06/30 04:14:07;;;;;;;8.43;5.05;;;19.10;99.90;;;19.49;93.78;100487.19;5148872;28;20054;-81
2022/06/30 04:16:39;;;;;;;8.25;5.10;;;19.10;99.90;;;19.51;93.78;100482.78;5131471;28;20047;-81
2022/06/30 04:19:11;;;;;;;9.80;6.15;;;19.10;99.90;;;19.53;94.42;100491.56;5148765;28;20046;-80
2022/06/30 04:21:43;;;;;;;7.95;5.35;;;19.20;99.90;;;19.56;94.63;100488.94;5149769;28;20043;-80
2022/06/30 04:24:15;;;;;;;8.07;5.38;;;19.20;99.90;;;19.60;94.73;100490.69;5133356;28;20051;-81
2022/06/30 04:26:49;;;;;;;8.77;5.60;;;19.20;99.90;;;19.66;94.84;100497.69;5133243;28;20089;-81
2022/06/30 04:29:21;;;;;;;8.30;5.82;;;19.30;99.90;;;19.68;94.52;100496.78;5133377;28;20053;-81
2022/06/30 04:34:43;;;;;;;7.78;5.55;;;19.30;99.90;;;19.77;94.89;100490.56;5148694;28;20129;-79
2022/06/30 04:37:16;;;;;;;11.50;6.50;;;19.40;99.90;;;19.77;95.12;100488.78;5148618;28;20042;-81
2022/06/30 04:39:48;;;;;;;11.32;6.88;;;19.40;99.90;;;19.81;95.29;100486.13;5130726;28;20402;-81
2022/06/30 04:42:21;;;;;;;9.32;5.90;;;19.50;99.90;;;19.82;95.66;100477.28;5130948;28;20418;-81
2022/06/30 04:44:54;;;;;;;8.85;5.85;;;19.40;99.90;;;19.88;95.78;100474.59;5149091;28;20929;-82
2022/06/30 04:47:26;;;;;;;11.18;7.00;;;19.50;99.90;;;19.93;96.29;100467.50;5132283;28;20074;-81
2022/06/30 04:49:58;;;;;;;10.07;6.45;;;19.50;99.90;;;20.05;96.24;100464.75;5132421;28;20051;-84
2022/06/30 04:52:30;;;;;;;10.45;6.65;;;19.60;99.90;;;20.26;96.54;100468.97;5225897;23;20041;-70
2022/06/30 04:55:03;;;;;;;10.10;6.78;;;19.80;99.90;;;20.56;97.06;100475.75;5208455;28;20129;-69
2022/06/30 04:57:36;;;;;;;10.60;7.03;;;20.00;99.90;;;20.90;95.97;100478.00;5207296;28;20498;-70
2022/06/30 05:00:09;;;;;;;10.70;6.82;;;20.30;99.90;;;21.23;93.17;100474.91;5207635;28;20046;-71
2022/06/30 05:02:42;;;;;;;11.27;7.18;;;20.60;99.90;;;21.61;90.75;100476.16;5208404;28;20046;-70
2022/06/30 05:05:14;;;;;;;11.43;7.32;;;20.90;99.90;;;22.03;87.71;100476.34;5208441;28;20045;-70
2022/06/30 05:07:47;;;;;;;11.05;6.75;;;21.30;99.90;;;22.32;84.80;100474.09;5208640;28;20100;-70
2022/06/30 05:10:19;;;;;;;10.27;7.35;;;21.60;99.90;;;22.63;82.63;100477.03;5223633;28;20128;-70
2022/06/30 05:12:52;;;;;;;10.10;6.93;;;21.90;99.90;;;22.90;80.58;100485.38;5208311;28;20091;-70
2022/06/30 05:15:25;;;;;;;11.23;7.05;;;22.10;99.90;;;23.17;78.99;100487.47;5223365;28;20164;-70
2022/06/30 05:17:57;;;;;;;9.63;6.63;;;22.40;99.90;;;23.39;77.78;100474.53;5208726;28;20393;-71
2022/06/30 05:20:30;;;;;;;9.23;6.28;;;22.60;99.90;;;23.72;76.55;100480.00;5207955;28;20046;-70
2022/06/30 05:23:02;;;;;;;10.45;6.63;;;22.80;99.90;;;23.91;74.93;100469.78;5207990;28;20053;-71
2022/06/30 05:28:26;;;;;;;10.60;6.28;;;23.30;99.90;;;24.51;72.18;100477.97;5207973;28;20045;-71
2022/06/30 05:30:58;;;;;;;10.27;6.75;;;23.60;99.90;;;24.71;70.81;100481.88;5207738;28;20045;-70
2022/06/30 05:33:30;;;;;;;9.05;6.60;;;23.90;99.90;;;24.61;70.07;100484.81;5207943;28;20080;-70
2022/06/30 05:36:02;;;;;;;10.98;6.65;;;23.90;99.90;;;24.64;70.48;100484.72;5207964;28;20120;-71
2022/06/30 05:38:35;;;;;;;9.70;6.82;;;23.90;99.90;;;24.86;69.76;100484.13;5207855;28;20579;-71
2022/06/30 05:41:07;;;;;;;10.73;6.75;;;24.10;99.90;;;25.11;68.74;100478.97;5207713;28;20129;-70
2022/06/30 05:43:40;;;;;;;9.90;6.93;;;24.20;99.90;;;25.39;67.44;100473.66;5207639;28;20045;-70
2022/06/30 05:46:12;;;;;;;10.10;6.65;;;24.50;99.90;;;25.58;66.66;100471.28;5207681;28;20410;-70
2022/06/30 05:48:45;;;;;;;9.45;6.55;;;24.70;99.90;;;25.71;66.27;100470.84;5207651;28;20124;-70
2022/06/30 05:51:17;;;;;;;8.45;6.07;;;24.80;99.90;;;25.87;65.47;100460.56;5207504;28;20071;-70
2022/06/30 05:53:49;;;;;;;9.85;6.85;;;25.00;99.90;;;26.09;65.33;100468.72;5207865;28;20053;-71
2022/06/30 05:56:22;;;;;;;8.15;6.50;;;25.10;99.90;;;26.38;63.71;100467.69;5207756;28;20058;-70
2022/06/30 05:58:55;;;;;;;9.57;6.35;;;25.40;99.30;;;26.55;63.00;100466.25;5207516;28;20087;-72
2022/06/30 06:01:27;;;;;;;8.82;6.18;;;25.60;98.80;;;26.75;62.23;100466.41;5207409;28;20524;-72
2022/06/30 06:04:00;;;;;;;11.43;6.25;;;25.80;98.40;;;26.95;61.54;100463.84;5205930;28;20140;-72
2022/06/30 06:06:32;;;;;;;9.07;6.05;;;26.00;98.00;;;27.11;60.84;100469.50;5207089;28;20461;-72
2022/06/30 06:09:04;;;;;;;10.23;5.85;;;26.10;97.50;;;27.23;59.42;100469.03;5207212;28;20510;-72
2022/06/30 06:11:37;;;;;;;7.47;5.38;;;26.30;96.70;;;27.41;59.73;100477.28;5207247;28;20132;-72
2022/06/30 06:14:10;;;;;;;8.82;5.90;;;26.40;96.70;;;27.60;58.47;100472.94;5207215;28;20045;-71
2022/06/30 06:16:42;;;;;;;9.60;5.80;;;26.60;96.10;;;27.40;59.04;100476.41;5207073;28;20064;-72
2022/06/30 06:19:15;;;;;;;8.13;5.88;;;26.60;95.90;;;27.51;59.14;100476.81;5207078;28;20041;-72
2022/06/30 06:21:48;;;;;;;8.60;5.95;;;26.60;95.90;;;27.80;58.39;100477.50;5222045;28;20513;-72
2022/06/30 06:24:20;;;;;;;7.72;5.53;;;26.90;95.70;;;28.04;57.85;100475.59;5206817;28;20124;-71
2022/06/30 06:26:52;;;;;;;7.78;6.07;;;27.00;95.50;;;28.31;56.52;100486.97;5206784;28;20051;-72
2022/06/30 06:29:26;;;;;;;7.63;5.40;;;27.30;94.60;;;28.46;55.15;100488.09;5206792;28;20099;-72
2022/06/30 06:31:58;;;;;;;9.80;6.35;;;27.50;93.60;;;28.56;55.07;100486.75;5206531;28;20132;-72
2022/06/30 06:34:30;;;;;;;8.98;5.97;;;27.60;93.20;;;28.69;54.76;100487.06;5206596;28;20107;-71
2022/06/30 06:37:03;;;;;;;8.23;5.55;;;27.70;92.80;;;28.79;53.73;100478.53;5203819;28;20300;-72
2022/06/30 06:39:35;;;;;;;8.43;5.90;;;27.80;92.10;;;28.86;53.70;100485.38;5201335;28;20149;-72
2022/06/30 06:42:07;;;;;;;9.30;5.40;;;27.90;91.80;;;28.97;53.18;100481.38;5198831;28;20129;-71
2022/06/30 06:44:47;;;;;;;9.18;5.97;;;27.90;91.40;;;29.00;52.96;100475.84;5221367;28;20088;-72
2022/06/30 06:47:19;;;;;;;7.03;5.60;;;28.00;91.20;;;29.07;52.84;100477.28;5202228;28;20046;-72
2022/06/30 06:49:51;;;;;;;9.00;5.47;;;28.10;90.90;;;29.31;53.03;100486.88;5197175;28;20493;-72
2022/06/30 06:52:24;;;;;;;11.40;5.80;;;28.30;90.90;;;29.41;51.85;100487.34;5192018;28;20038;-72
2022/06/30 06:54:56;;;;;;;7.88;5.28;;;28.40;90.20;;;29.28;52.10;100484.34;5196134;28;20049;-72
2022/06/30 06:57:33;;;;;;;7.18;5.25;;;28.30;89.80;;;29.39;52.30;100487.38;5185949;28;20045;-72
2022/06/30 07:00:11;;;;;;;9.55;6.07;;;28.40;90.20;;;29.60;51.97;100481.94;5189882;28;20445;-72
2022/06/30 07:02:44;;;;;;;7.53;5.55;;;28.60;89.70;;;29.54;51.68;100480.44;5198687;28;20410;-71
2022/06/30 07:05:16;;;;;;;8.02;5.90;;;28.60;88.30;;;29.51;51.96;100477.00;5193420;28;20498;-72
2022/06/30 07:07:58;;;;;;;9.10;5.93;;;28.60;88.60;;;29.74;51.80;100474.09;5196305;28;20121;-72
2022/06/30 07:10:30;;;;;;;8.13;5.78;;;28.80;88.70;;;29.92;51.62;100473.16;5220828;28;20061;-71
2022/06/30 07:13:02;;;;;;;9.05;6.07;;;28.90;88.10;;;30.10;51.19;100478.59;5206147;28;20406;-71
2022/06/30 07:15:36;;;;;;;9.63;6.00;;;29.00;87.60;;;30.25;51.17;100478.66;5205168;28;20069;-71
2022/06/30 07:18:08;;;;;;;7.85;5.60;;;29.20;88.10;;;30.34;50.29;100477.31;5205868;28;20077;-71
2022/06/30 07:20:40;;;;;;;7.28;5.75;;;29.30;86.10;;;30.35;49.82;100484.44;5204418;28;20041;-55
2022/06/30 07:23:12;;;;;;;8.25;5.55;;;29.30;85.50;;;30.40;49.86;100484.19;5205758;28;20124;-55
2022/06/30 07:25:44;;;;;;;8.00;5.90;;;29.30;84.90;;;30.39;49.50;100491.41;5205672;28;20120;-70
2022/06/30 07:28:16;;;;;;;7.10;5.00;;;29.30;84.00;;;30.41;49.54;100492.19;5205691;28;20183;-67
2022/06/30 07:30:52;;;;;;;7.20;5.13;;;29.40;84.10;;;30.49;49.44;100489.94;5205736;28;20405;-73
2022/06/30 07:33:24;;;;;;;6.47;5.00;;;29.40;83.70;;;30.37;49.44;100495.97;5206039;28;20533;-75
2022/06/30 07:35:56;;;;;;;6.93;5.00;;;29.40;83.30;;;30.22;50.61;100489.56;5205460;28;20116;-70
2022/06/30 07:38:28;;;;;;;7.20;4.93;;;29.20;84.40;;;30.17;51.30;100488.94;5204899;28;20524;-70
2022/06/30 07:41:00;;;;;;;6.18;5.00;;;29.10;85.30;;;30.20;51.01;100487.94;5204908;28;20541;-70
2022/06/30 07:43:33;;;;;;;6.55;4.90;;;29.10;85.50;;;30.19;50.74;100492.44;5205547;28;20049;-69
2022/06/30 07:46:08;;;;;;;5.90;4.82;;;29.00;85.00;;;30.23;50.86;100491.31;5205653;28;20490;-71
2022/06/30 07:48:41;;;;;;;6.60;5.05;;;29.00;85.10;;;30.28;51.23;100493.78;5205560;28;20453;-70
2022/06/30 07:51:13;;;;;;;6.97;5.00;;;29.00;85.70;;;30.32;50.44;100497.16;5205614;28;20409;-72
2022/06/30 07:53:46;;;;;;;7.00;5.28;;;29.10;84.90;;;30.39;50.62;100501.28;5205545;28;20042;-72
2022/06/30 07:56:18;;;;;;;6.95;4.90;;;29.10;85.20;;;30.43;50.11;100498.34;5205783;28;20040;-69
2022/06/30 07:58:50;;;;;;;7.20;5.38;;;29.20;84.40;;;30.53;49.77;100494.22;5205549;28;20065;-71
2022/06/30 08:01:23;;;;;;;7.70;5.20;;;29.20;84.30;;;30.71;49.94;100502.28;5205464;28;20045;-70
2022/06/30 08:03:56;;;;;;;6.75;5.18;;;29.30;84.40;;;30.92;49.07;100501.16;5205378;28;20132;-72
2022/06/30 08:06:28;;;;;;;6.57;4.97;;;29.40;84.10;;;31.16;48.85;100500.75;5205366;28;20038;-72
2022/06/30 08:09:00;;;;;;;7.82;5.35;;;29.50;83.90;;;31.49;47.98;100506.09;5205015;28;20045;-70
2022/06/30 08:11:32;;;;;;;7.13;5.47;;;29.70;83.20;;;31.72;47.61;100502.09;5199181;28;20056;-70
2022/06/30 08:14:04;;;;;;;6.57;4.65;;;29.80;82.80;;;31.97;47.49;100505.13;5205376;28;20490;-71
2022/06/30 08:16:38;;;;;;;7.30;5.15;;;29.90;82.80;;;32.34;46.72;100502.97;5204110;28;20139;-71
2022/06/30 08:19:10;;;;;;;5.88;4.43;;;30.20;82.70;;;32.92;45.73;100499.41;5205259;28;20056;-71
2022/06/30 08:21:42;;;;;;;5.38;4.68;;;30.50;81.80;;;33.40;44.31;100495.44;5205363;28;20056;-70
2022/06/30 08:24:14;;;;;;;5.97;4.30;;;30.80;80.50;;;34.01;43.19;100496.81;5205288;28;20051;-70
2022/06/30 08:26:46;;;;;;;5.70;4.45;;;31.10;79.20;;;34.60;42.42;100496.41;5205397;28;20037;-70
2022/06/30 08:29:18;;;;;;;5.57;4.00;;;31.40;78.90;;;35.34;41.36;100498.31;5209252;28;20053;-72
2022/06/30 08:31:52;;;;;;;5.90;4.40;;;31.90;78.10;;;36.14;40.15;100495.94;5209016;28;20045;-71
2022/06/30 08:34:24;;;;;;;5.20;4.00;;;32.30;77.00;;;36.85;38.11;100485.88;5208956;28;20041;-71
2022/06/30 08:36:56;;;;;;;5.07;4.07;;;32.60;75.30;;;37.45;36.77;100494.66;5208837;28;20045;-71
2022/06/30 08:42:21;;;;;;;4.38;3.58;;;33.50;71.90;;;39.52;32.74;100503.00;5208813;28;20084;-70
2022/06/30 08:47:46;;;;;;;5.88;4.13;;;34.80;65.90;;;40.54;30.08;100498.03;5208645;28;20034;-72
2022/06/30 08:50:19;;;;;;;4.57;3.63;;;35.40;63.30;;;41.07;29.86;100492.00;5208669;28;20049;-71
2022/06/30 08:52:53;;;;;;;;;;;35.90;62.20;;;41.57;28.97;100494.34;5188655;28;20052;-71
2022/06/30 08:55:28;;;;;;;3.47;3.13;;;36.50;60.30;;;42.05;28.72;100503.22;5188134;28;19952;-71
2022/06/30 08:58:05;;;;;;;3.92;3.25;;;37.00;59.60;;;42.45;27.10;100494.50;5188187;28;20046;-71
2022/06/30 09:00:39;;;;;;;4.80;3.40;;;37.50;57.30;;;42.72;26.85;100497.13;5206926;28;20048;-71
2022/06/30 09:03:13;;;;;;;4.15;3.20;;;37.80;57.10;;;43.08;26.64;100486.00;5207911;28;20119;-70
2022/06/30 09:05:46;;;;;;;3.90;2.97;;;38.10;56.00;;;43.09;26.62;100493.22;5207411;28;20124;-72
2022/06/30 09:08:19;;;;;;;3.70;3.30;;;38.30;55.30;;;43.04;26.41;100480.03;5208325;28;20524;-71
2022/06/30 09:10:54;;;;;;;5.35;3.70;;;38.40;54.50;;;42.73;26.34;100476.06;5208302;28;20041;-72
2022/06/30 09:13:41;;;;;;;4.13;3.30;;;38.30;54.00;;;42.46;26.71;100479.78;5206992;28;20152;-73
2022/06/30 09:16:13;;;;;;;4.97;3.50;;;38.10;54.50;;;42.48;26.30;100483.22;5208178;28;20050;-73
2022/06/30 09:18:47;;;;;;;3.53;3.10;;;38.00;54.00;;;42.55;25.86;100473.34;5208058;28;20124;-72
2022/06/30 09:21:20;;;;;;;3.92;3.20;;;38.10;53.20;;;42.53;25.41;100472.66;5208184;28;20470;-72
2022/06/30 09:23:53;;;;;;;3.67;2.72;;;38.10;52.50;;;42.24;25.59;100479.28;5208285;28;20128;-70
2022/06/30 09:26:25;;;;;;;4.95;3.13;;;38.00;52.10;;;41.66;26.19;100471.50;5206587;28;20045;-71
2022/06/30 09:28:57;;;;;;;4.43;3.17;;;37.70;52.00;;;40.85;27.20;100470.50;5207812;28;20038;-70
2022/06/30 09:31:35;;;;;;;5.80;3.38;;;37.20;52.70;;;40.47;27.75;100472.34;5207524;28;20049;-71
2022/06/30 09:34:19;;;;;;;4.03;2.90;;;37.00;53.30;;;40.06;27.54;100460.75;5206877;28;20128;-71
2022/06/30 09:36:53;;;;;;;4.43;3.20;;;36.90;52.70;;;39.57;27.95;100457.06;5207759;28;20482;-71
2022/06/30 09:39:25;;;;;;;4.00;3.38;;;36.60;52.40;;;39.02;29.74;100459.34;5207022;28;20048;-70
2022/06/30 09:41:57;;;;;;;4.78;3.33;;;36.50;54.00;;;38.25;31.11;100448.00;5207591;28;20041;-71
2022/06/30 09:44:29;;;;;;;4.97;3.13;;;36.20;55.00;;;37.48;31.39;100451.75;5207552;28;20049;-70
2022/06/30 09:47:05;;;;;;;5.32;3.05;;;35.70;54.80;;;36.85;32.68;100453.28;5207479;28;20383;-72
2022/06/30 09:49:41;;;;;;;3.50;3.17;;;35.40;55.30;;;36.33;33.55;100442.97;5207590;28;20565;-71
2022/06/30 09:52:18;;;;;;;4.28;2.92;;;34.90;56.10;;;35.94;33.10;100438.81;5207296;28;20045;-71
2022/06/30 09:54:55;;;;;;;4.25;3.05;;;34.50;55.50;;;35.67;33.25;100442.59;5207352;28;20048;-71
2022/06/30 09:57:30;;;;;;;3.45;3.15;;;34.30;55.60;;;35.50;33.57;100430.31;5207365;28;20041;-70
2022/06/30 10:00:07;;;;;;;4.57;3.30;;;34.10;55.80;;;35.26;33.43;100427.53;5207210;28;20128;-70
2022/06/30 10:02:44;;;;;;;4.35;3.20;;;34.00;55.80;;;35.15;34.23;100421.19;5207697;28;20054;-72
2022/06/30 10:05:19;;;;;;;4.15;3.33;;;33.80;56.40;;;35.08;35.46;100434.31;5207191;28;20053;-69
2022/06/30 10:07:52;;;;;;;3.30;2.92;;;33.80;58.00;;;35.02;35.25;100424.81;5207416;28;20038;-70
2022/06/30 10:10:26;;;;;;;4.70;3.50;;;33.70;58.00;;;35.01;35.43;100427.63;5207056;28;20051;-69
2022/06/30 10:12:58;;;;;;;6.95;3.20;;;33.70;58.50;;;35.04;35.42;100427.41;5207000;28;20520;-70
2022/06/30 10:15:33;;;;;;;3.90;3.10;;;33.70;58.20;;;35.02;35.47;100423.97;5205828;28;20489;-70
2022/06/30 10:18:08;;;;;;;4.28;2.90;;;33.60;58.20;;;34.97;34.80;100415.28;5206857;28;20120;-70
2022/06/30 10:20:42;;;;;;;3.25;2.70;;;33.60;57.10;;;34.94;34.41;100413.66;5206869;28;20049;-69
2022/06/30 10:23:15;;;;;;;3.15;2.67;;;33.50;57.00;;;35.00;34.05;100420.47;5207139;28;20517;-72
2022/06/30 10:25:49;;;;;;;2.88;2.55;;;33.60;56.40;;;34.88;32.65;100408.66;5206718;28;20033;-71
2022/06/30 10:28:23;;;;;;;3.00;2.60;;;33.50;54.90;;;34.72;32.08;100411.63;5207003;28;20490;-70
2022/06/30 10:31:08;;;;;;;4.88;3.10;;;33.50;53.80;;;34.63;32.25;100412.28;5206691;28;20058;-69
2022/06/30 10:33:51;;;;;;;2.75;2.33;;;33.40;53.90;;;34.61;31.89;100403.41;5207136;28;20048;-69
2022/06/30 10:36:30;;;;;;;3.45;2.65;;;33.40;53.70;;;34.54;31.53;100407.53;5206591;28;20049;-71
2022/06/30 10:39:08;;;;;;;2.88;2.45;;;33.40;53.40;;;34.36;31.78;100398.81;5206641;28;20042;-69
2022/06/30 10:41:46;;;;;;;3.13;2.40;;;33.30;53.00;;;34.18;32.07;100400.16;5205225;28;20041;-70
2022/06/30 10:44:24;;;;;;;3.72;2.30;;;33.10;53.30;;;34.09;34.14;100407.03;5206736;28;20048;-69
2022/06/30 10:47:08;;;;;;;3.13;2.53;;;33.00;55.50;;;34.03;35.23;100403.91;5206339;28;20136;-70
2022/06/30 10:49:56;;;;;;;2.55;2.35;;;32.90;56.90;;;33.97;34.98;100397.97;5206407;28;20048;-70
2022/06/30 10:52:32;;;;;;;4.50;2.55;;;32.80;56.60;;;33.86;34.16;100388.81;5205692;28;20529;-70
2022/06/30 10:55:08;;;;;;;2.72;2.08;;;32.70;55.70;;;33.64;34.42;100398.38;5268507;22;20136;-69